Onondaga, Michigan
Current Conditions -  °F | °C
As of 9:32 PM on Tuesday 21 Oct 2014 (Local Time) from KTEW Reporting Station
Clear Clear  
Wind Chill:   Ceiling: Unl
Heat Index:   Visibility: 10mi
Dew Point:   Wind: 0mph
Humidity: 83%   Direction: NA
Pressure: 30.23"   Gusts: NA
Location:  42.44°N, 84.56°W
Report Text: KTEW 220132Z AUTO 00000KT 10SM CLR 04/01 A3023 RMK AO2 T00400014
Loading
Personal Weather Stations






























Interactive Weather Map New forecast layout! Learn more

10-Day Weather Forecast

Advertisements
Track Severe Weather on mobile